Time;durP1;ratioP1;P1;durP2;ratioP2;P2;SDS_P1;SDS_P2;PMS_P1;PMS_P2;Temp;Humidity;BMP_temperature;BMP_pressure;BME280_temperature;BME280_humidity;BME280_pressure;Samples;Min_cycle;Max_cycle;Signal;HPM_P1;HPM_P2
2022/01/11 00:01:26;;;;;;;137.68;119.55;;;1.30;99.90;;;;;;6131148;23;20146;-89
2022/01/11 00:04:36;;;;;;;124.22;103.88;;;1.30;99.90;;;;;;6129561;23;20189;-89
2022/01/11 00:11:44;;;;;;;125.18;83.57;;;1.40;99.90;;;;;;6010143;23;20152;-89
2022/01/11 00:15:04;;;;;;;119.10;81.75;;;1.40;99.90;;;;;;5991080;23;20201;-89
2022/01/11 00:18:15;;;;;;;128.20;111.45;;;1.30;99.90;;;;;;6021150;23;20181;-89
2022/01/11 00:35:21;;;;;;;;;;;;;;;;;;;;;
2022/01/11 00:42:01;;;;;;;;;;;;;;;;;;;;;
2022/01/11 00:44:54;;;;;;;117.68;93.55;;;1.40;99.90;;;;;;6155589;23;20257;-89
2022/01/11 00:47:36;;;;;;;133.65;114.30;;;1.50;99.90;;;;;;6159056;23;20133;-89
2022/01/11 00:53:57;;;;;;;117.13;76.63;;;1.50;99.90;;;;;;6023557;23;20152;-89
2022/01/11 00:58:00;;;;;;;140.55;125.38;;;1.50;99.90;;;;;;6039347;23;20194;-89
2022/01/11 01:06:47;;;;;;;140.35;125.82;;;1.50;99.90;;;;;;6152825;23;20205;-89
2022/01/11 01:13:11;;;;;;;120.68;92.18;;;1.40;99.90;;;;;;6097672;23;20151;-89
2022/01/11 01:21:39;;;;;;;;;;;;;;;;;;;;;
2022/01/11 01:24:10;;;;;;;128.18;110.18;;;1.40;99.90;;;;;;6125240;23;20198;-85
2022/01/11 01:26:52;;;;;;;119.10;89.00;;;1.40;99.90;;;;;;6104468;23;20151;-85
2022/01/11 01:29:43;;;;;;;134.95;116.25;;;1.50;99.90;;;;;;6106673;23;20160;-88
2022/01/11 01:32:14;;;;;;;125.57;111.63;;;1.50;99.90;;;;;;6105418;23;20155;-84
2022/01/11 01:34:49;;;;;;;126.28;112.57;;;1.40;99.90;;;;;;6104751;23;20185;-85
2022/01/11 01:37:18;;;;;;;122.50;107.95;;;1.40;99.90;;;;;;6107406;23;20161;-86
2022/01/11 01:39:54;;;;;;;140.60;126.68;;;1.40;99.90;;;;;;6132254;23;20142;-87
2022/01/11 01:42:42;;;;;;;133.88;119.55;;;1.40;99.90;;;;;;6110818;23;20173;-86
2022/01/11 01:45:49;;;;;;;140.13;125.45;;;1.40;99.90;;;;;;6106549;23;20229;-86
2022/01/11 01:48:51;;;;;;;;;;;;;;;;;;;;;
2022/01/11 01:51:34;;;;;;;119.18;94.63;;;1.40;99.90;;;;;;6127539;23;20184;-87
2022/01/11 01:57:39;;;;;;;121.53;97.65;;;1.30;99.90;;;;;;6127949;23;20234;-88
2022/01/11 02:00:12;;;;;;;117.40;101.53;;;1.30;99.90;;;;;;6073358;23;20522;-88
2022/01/11 02:02:51;;;;;;;119.70;106.47;;;1.30;99.90;;;;;;6105647;23;20166;-87
2022/01/11 02:05:22;;;;;;;122.85;106.63;;;1.30;99.90;;;;;;6106980;23;20686;-87
2022/01/11 02:07:48;;;;;;;163.40;147.57;;;1.40;99.90;;;;;;6106720;23;20205;-87
2022/01/11 02:10:22;;;;;;;153.07;136.83;;;1.40;99.90;;;;;;6108009;23;20229;-88
2022/01/11 02:13:01;;;;;;;135.80;121.88;;;1.30;99.90;;;;;;6107507;23;20374;-87
2022/01/11 02:15:29;;;;;;;130.68;115.10;;;1.30;99.90;;;;;;6133949;23;20181;-87
2022/01/11 02:18:30;;;;;;;150.05;135.52;;;1.40;99.90;;;;;;6108588;23;20178;-86
2022/01/11 02:21:07;;;;;;;117.10;103.68;;;1.50;99.90;;;;;;6107828;23;20157;-86
2022/01/11 02:23:36;;;;;;;125.10;107.30;;;1.40;99.90;;;;;;6108070;23;20165;-86
2022/01/11 02:26:28;;;;;;;121.20;107.50;;;1.50;99.90;;;;;;6109003;23;20158;-87
2022/01/11 02:29:14;;;;;;;120.30;105.20;;;1.40;99.90;;;;;;6132863;23;20150;-86
2022/01/11 02:31:49;;;;;;;124.60;109.57;;;1.40;99.90;;;;;;6112620;23;20174;-87
2022/01/11 02:34:24;;;;;;;116.45;99.82;;;1.40;99.90;;;;;;6132257;23;20162;-87
2022/01/11 02:37:05;;;;;;;116.05;100.07;;;1.40;99.90;;;;;;6107965;23;20476;-87
2022/01/11 02:39:49;;;;;;;133.15;110.93;;;1.30;99.90;;;;;;6134418;23;20453;-88
2022/01/11 02:42:38;;;;;;;130.52;116.13;;;1.40;99.90;;;;;;6134746;23;20127;-86
2022/01/11 02:45:40;;;;;;;117.28;92.65;;;1.40;99.90;;;;;;6134070;23;20178;-87
2022/01/11 02:48:42;;;;;;;132.73;117.93;;;1.40;99.90;;;;;;6109045;23;20276;-86
2022/01/11 02:51:29;;;;;;;116.25;93.85;;;1.50;99.90;;;;;;5993053;23;20265;-87
2022/01/11 02:54:02;;;;;;;118.18;86.15;;;1.40;99.90;;;;;;6107737;23;20194;-87
2022/01/11 02:56:39;;;;;;;129.48;106.75;;;1.40;99.90;;;;;;6107932;23;20330;-87
2022/01/11 02:59:23;;;;;;;122.95;98.90;;;1.50;99.90;;;;;;6106077;23;20206;-87
2022/01/11 03:01:49;;;;;;;123.60;100.32;;;1.50;99.90;;;;;;6106714;23;20153;-86
2022/01/11 03:04:21;;;;;;;132.73;118.43;;;1.40;99.90;;;;;;6108163;23;20167;-87
2022/01/11 03:06:49;;;;;;;112.68;83.28;;;1.40;99.90;;;;;;6107455;23;20375;-86
2022/01/11 03:09:40;;;;;;;122.35;98.25;;;1.40;99.90;;;;;;6108514;23;20153;-87
2022/01/11 03:12:12;;;;;;;116.68;90.85;;;1.40;99.90;;;;;;6108716;23;20253;-88
2022/01/11 03:14:47;;;;;;;112.68;88.20;;;1.30;99.90;;;;;;6108111;23;20167;-87
2022/01/11 03:17:32;;;;;;;115.03;91.38;;;1.30;99.90;;;;;;6108732;23;20146;-86
2022/01/11 03:20:25;;;;;;;121.10;96.50;;;1.20;99.90;;;;;;6108012;23;20146;-86
2022/01/11 03:23:55;;;;;;;109.57;74.57;;;1.10;99.90;;;;;;6106773;23;20153;-87
2022/01/11 03:26:12;;;;;;;118.63;86.88;;;1.10;99.90;;;;;;6112320;23;20624;-86
2022/01/11 03:28:41;;;;;;;116.38;82.43;;;1.10;99.90;;;;;;6108668;23;20163;-87
2022/01/11 03:31:35;;;;;;;118.93;79.10;;;1.10;99.90;;;;;;6108219;23;20157;-86
2022/01/11 03:34:24;;;;;;;108.78;66.75;;;1.20;99.90;;;;;;6134583;23;20166;-87
2022/01/11 03:37:02;;;;;;;110.50;73.93;;;1.10;99.90;;;;;;6016939;23;20221;-87
2022/01/11 03:39:28;;;;;;;110.72;78.43;;;1.10;99.90;;;;;;6127532;23;20449;-87
2022/01/11 03:42:04;;;;;;;;;;;;;;;;;;;;;
2022/01/11 03:45:00;;;;;;;116.13;82.07;;;1.10;99.90;;;;;;6136156;23;20398;-87
2022/01/11 03:48:15;;;;;;;115.63;72.45;;;1.10;99.90;;;;;;6108220;23;20514;-88
2022/01/11 03:50:22;;;;;;;110.80;76.75;;;1.10;99.90;;;;;;6119076;23;20202;-87
2022/01/11 03:52:57;;;;;;;124.22;94.50;;;1.10;99.90;;;;;;6085904;23;20139;-87
2022/01/11 03:55:57;;;;;;;126.75;95.43;;;1.10;99.90;;;;;;6113228;23;20217;-86
2022/01/11 03:59:00;;;;;;;113.65;74.07;;;1.20;99.90;;;;;;6149377;23;20583;-86
2022/01/11 04:01:55;;;;;;;108.38;59.97;;;1.20;99.90;;;;;;6169016;23;20208;-86
2022/01/11 04:04:52;;;;;;;;;;;;;;;;;;;;;
2022/01/11 04:07:38;;;;;;;;;;;;;;;;;;;;;
2022/01/11 04:10:48;;;;;;;110.13;77.03;;;1.20;99.90;;;;;;6164989;23;20154;-86
2022/01/11 04:13:24;;;;;;;108.28;74.43;;;1.10;99.90;;;;;;6135814;23;20631;-87
2022/01/11 04:15:59;;;;;;;111.28;83.45;;;1.20;99.90;;;;;;6163751;23;20161;-87
2022/01/11 04:18:53;;;;;;;;;;;;;;;;;;;;;
2022/01/11 04:21:39;;;;;;;108.35;72.45;;;1.20;99.90;;;;;;6163240;23;20162;-86
2022/01/11 04:27:37;;;;;;;115.47;84.03;;;1.10;99.90;;;;;;6163506;23;20464;-86
2022/01/11 04:30:26;;;;;;;115.82;82.68;;;1.20;99.90;;;;;;6137353;23;20149;-87
2022/01/11 04:33:23;;;;;;;121.53;88.53;;;1.20;99.90;;;;;;6135874;23;20201;-87
2022/01/11 04:36:33;;;;;;;109.93;71.40;;;1.30;99.90;;;;;;6109925;23;20175;-86
2022/01/11 04:46:57;;;;;;;102.43;58.33;;;1.40;99.90;;;;;;5972479;23;20523;-86
2022/01/11 04:50:05;;;;;;;120.28;75.47;;;1.20;99.90;;;;;;6014501;23;20324;-87
2022/01/11 04:59:02;;;;;;;105.57;61.35;;;1.00;99.90;;;;;;6004642;23;20149;-86
2022/01/11 05:01:53;;;;;;;116.28;78.32;;;1.00;99.90;;;;;;6046060;23;20184;-86
2022/01/11 05:05:35;;;;;;;121.50;78.35;;;1.10;99.90;;;;;;6048712;23;20194;-87
2022/01/11 05:08:17;;;;;;;;;;;;;;;;;;;;;
2022/01/11 05:11:42;;;;;;;;;;;;;;;;;;;;;
2022/01/11 05:14:10;;;;;;;121.60;66.13;;;1.00;99.90;;;;;;6148574;23;20553;-87
2022/01/11 05:17:26;;;;;;;110.38;71.82;;;1.00;99.90;;;;;;6115819;23;20257;-86
2022/01/11 05:20:30;;;;;;;118.05;76.10;;;1.10;99.90;;;;;;6135677;23;20587;-87
2022/01/11 05:32:11;;;;;;;107.85;63.70;;;0.90;99.90;;;;;;6147242;23;20184;-86
2022/01/11 05:35:28;;;;;;;106.90;65.75;;;1.00;99.90;;;;;;6119248;23;20205;-86
2022/01/11 05:38:18;;;;;;;117.18;75.10;;;0.90;99.90;;;;;;6084519;23;20201;-87
2022/01/11 05:47:41;;;;;;;118.22;73.85;;;0.80;99.90;;;;;;6116492;23;20616;-86
2022/01/11 06:11:50;;;;;;;;;;;;;;;;;;;;;
2022/01/11 06:14:28;;;;;;;106.30;57.38;;;1.00;99.90;;;;;;6016025;23;20256;-86
2022/01/11 06:20:47;;;;;;;107.55;63.47;;;0.90;99.90;;;;;;6042105;23;20608;-86
2022/01/11 06:27:17;;;;;;;113.55;79.30;;;0.90;99.90;;;;;;6118148;23;20151;-86
2022/01/11 06:30:47;;;;;;;114.07;67.53;;;0.80;99.90;;;;;;6108402;23;20198;-86
2022/01/11 06:34:02;;;;;;;117.85;73.50;;;0.70;99.90;;;;;;6103747;23;20197;-86
2022/01/11 06:36:57;;;;;;;;;;;;;;;;;;;;;
2022/01/11 06:43:27;;;;;;;110.38;66.05;;;0.80;99.90;;;;;;5839458;24;20172;-86
2022/01/11 06:52:39;;;;;;;121.97;78.93;;;0.90;99.90;;;;;;5879102;24;20149;-85
2022/01/11 06:55:57;;;;;;;;;;;;;;;;;;;;;
2022/01/11 06:59:06;;;;;;;125.30;98.63;;;0.90;99.90;;;;;;5983004;24;20146;-86
2022/01/11 07:02:24;;;;;;;105.03;64.03;;;0.80;99.90;;;;;;5965848;24;20174;-86
2022/01/11 07:05:08;;;;;;;109.70;60.35;;;0.90;99.90;;;;;;5935165;24;20166;-86
2022/01/11 07:07:51;;;;;;;114.03;88.15;;;0.80;99.90;;;;;;6108973;23;20203;-86
2022/01/11 07:10:27;;;;;;;109.28;75.30;;;0.80;99.90;;;;;;6109100;23;20146;-86
2022/01/11 07:13:08;;;;;;;141.88;126.72;;;0.80;99.90;;;;;;6109198;23;20150;-86
2022/01/11 07:15:45;;;;;;;119.20;92.95;;;0.70;99.90;;;;;;6134915;23;20173;-86
2022/01/11 07:18:56;;;;;;;114.35;80.13;;;0.70;99.90;;;;;;6108177;23;20197;-86
2022/01/11 07:21:38;;;;;;;112.05;75.57;;;0.70;99.90;;;;;;6086199;23;20147;-86
2022/01/11 09:47:41;;;;;;;;;;;;;;;;;;;;;
2022/01/11 10:03:24;;;;;;;122.43;98.65;;;1.10;99.90;;;;;;6159583;23;20160;-87
2022/01/11 11:12:54;;;;;;;;;;;;;;;;;;;;;
2022/01/11 11:16:33;;;;;;;125.88;84.22;;;2.30;99.90;;;;;;6104448;23;20281;-88
2022/01/11 11:19:34;;;;;;;121.82;71.85;;;2.40;99.90;;;;;;6126442;23;20158;-88
2022/01/11 11:22:24;;;;;;;121.80;71.30;;;2.40;99.90;;;;;;6110011;23;20150;-87
2022/01/11 11:24:53;;;;;;;126.22;74.70;;;2.40;99.90;;;;;;6109813;23;20173;-88
2022/01/11 11:27:46;;;;;;;117.75;73.60;;;2.30;99.90;;;;;;6108965;23;20173;-87
2022/01/11 11:30:33;;;;;;;107.53;66.97;;;2.30;99.90;;;;;;5994506;23;20149;-88
2022/01/11 11:33:42;;;;;;;136.20;99.95;;;2.50;99.90;;;;;;6134818;23;20165;-87
2022/01/11 11:36:29;;;;;;;116.38;68.85;;;2.70;99.90;;;;;;6107946;23;20175;-87
2022/01/11 11:39:37;;;;;;;116.78;77.90;;;2.70;99.90;;;;;;6091600;23;20182;-88
2022/01/11 11:45:56;;;;;;;121.65;69.43;;;2.80;99.90;;;;;;6132349;23;20170;-87
2022/01/11 11:49:11;;;;;;;115.50;65.75;;;2.80;99.90;;;;;;6132328;23;20258;-87
2022/01/11 11:51:53;;;;;;;113.82;63.35;;;2.90;99.90;;;;;;6092733;23;20229;-87
2022/01/11 12:05:18;;;;;;;109.18;55.90;;;3.10;99.90;;;;;;6140203;23;20180;-88
2022/01/11 12:08:42;;;;;;;109.40;53.25;;;3.10;99.90;;;;;;6019941;23;20149;-87
2022/01/11 12:12:23;;;;;;;110.97;66.13;;;3.30;99.90;;;;;;6047094;23;20175;-88
2022/01/11 12:19:34;;;;;;;107.05;51.75;;;3.30;99.90;;;;;;6017829;23;20155;-88
2022/01/11 13:17:04;;;;;;;104.18;66.43;;;3.80;99.90;;;;;;6135309;23;20194;-86
2022/01/11 13:19:44;;;;;;;99.60;62.70;;;3.90;99.90;;;;;;6135001;23;20153;-86
2022/01/11 13:29:29;;;;;;;107.13;61.63;;;3.90;99.90;;;;;;6068906;23;20162;-88
2022/01/11 13:32:12;;;;;;;102.40;61.33;;;4.00;99.90;;;;;;6070978;23;20159;-87
2022/01/11 13:35:17;;;;;;;;;;;;;;;;;;;;;
2022/01/11 13:38:59;;;;;;;;;;;;;;;;;;;;;
2022/01/11 13:42:28;;;;;;;95.60;46.47;;;4.10;99.90;;;;;;6014743;23;20172;-88
2022/01/11 13:45:01;;;;;;;94.78;49.33;;;4.10;99.90;;;;;;6005127;23;20172;-88
2022/01/11 13:47:51;;;;;;;98.10;54.92;;;4.20;99.90;;;;;;6016083;23;20161;-88
2022/01/11 13:50:40;;;;;;;98.35;56.70;;;4.20;99.90;;;;;;5990424;23;20153;-88
2022/01/11 13:53:47;;;;;;;101.03;61.33;;;4.10;99.90;;;;;;6054851;23;20156;-88
2022/01/11 13:57:14;;;;;;;102.15;53.58;;;4.20;99.90;;;;;;6079798;23;20608;-88
2022/01/11 14:00:06;;;;;;;97.25;49.50;;;4.20;99.90;;;;;;5936858;24;20188;-88
2022/01/11 14:02:53;;;;;;;105.57;50.58;;;4.20;99.90;;;;;;5986491;24;20605;-88
2022/01/11 14:06:23;;;;;;;102.10;54.80;;;4.30;99.90;;;;;;6059614;23;20167;-88
2022/01/11 14:09:17;;;;;;;95.50;46.28;;;4.30;99.90;;;;;;6076817;23;20279;-88
2022/01/11 14:14:47;;;;;;;102.05;61.22;;;4.30;99.90;;;;;;6076121;23;20171;-88
2022/01/11 14:20:42;;;;;;;101.25;58.10;;;4.30;99.90;;;;;;6102372;23;20154;-88
2022/01/11 14:27:01;;;;;;;98.75;51.38;;;4.40;99.90;;;;;;6014721;23;20165;-88
2022/01/11 14:29:32;;;;;;;95.72;50.15;;;4.40;99.90;;;;;;5993229;23;20205;-87
2022/01/11 14:32:05;;;;;;;94.15;45.55;;;4.50;99.90;;;;;;6080577;23;20474;-88
2022/01/11 14:38:12;;;;;;;91.88;38.03;;;4.40;99.90;;;;;;6065643;23;20155;-88
2022/01/11 14:41:17;;;;;;;92.53;36.30;;;4.40;99.90;;;;;;6080516;23;20158;-88
2022/01/11 14:48:13;;;;;;;;;;;;;;;;;;;;;
2022/01/11 14:51:23;;;;;;;;;;;;;;;;;;;;;
2022/01/11 14:54:14;;;;;;;88.10;28.58;;;4.30;99.90;;;;;;5955869;23;20186;-89
2022/01/11 14:57:19;;;;;;;;;;;;;;;;;;;;;
2022/01/11 15:00:25;;;;;;;98.35;39.15;;;4.30;99.90;;;;;;6108042;23;20171;-88
2022/01/11 15:03:21;;;;;;;94.47;35.25;;;4.30;99.90;;;;;;6107157;23;20183;-88
2022/01/11 15:12:10;;;;;;;89.60;34.97;;;4.20;99.90;;;;;;6048406;23;20188;-88
2022/01/11 15:15:11;;;;;;;;;;;;;;;;;;;;;
2022/01/11 15:18:06;;;;;;;90.28;36.20;;;4.20;99.90;;;;;;6056111;23;20641;-88
2022/01/11 15:27:09;;;;;;;93.43;37.13;;;4.00;99.90;;;;;;6077618;23;20148;-88
2022/01/11 15:37:15;;;;;;;101.82;55.15;;;3.80;99.90;;;;;;6073763;23;20207;-88
2022/01/11 15:50:32;;;;;;;92.90;48.30;;;3.50;99.90;;;;;;6085840;23;20620;-89
2022/01/11 15:56:59;;;;;;;91.68;30.63;;;3.40;99.90;;;;;;6137823;23;20193;-88
2022/01/11 16:00:14;;;;;;;;;;;;;;;;;;;;;
2022/01/11 16:03:08;;;;;;;84.78;31.13;;;3.30;99.90;;;;;;6134912;23;20193;-88
2022/01/11 16:06:02;;;;;;;90.65;36.90;;;3.20;99.90;;;;;;6137503;23;20170;-88
2022/01/11 16:09:14;;;;;;;92.35;42.50;;;3.20;99.90;;;;;;6137256;23;20151;-88
2022/01/11 16:22:20;;;;;;;86.53;28.67;;;3.10;99.90;;;;;;6050795;23;20458;-88
2022/01/11 16:35:34;;;;;;;112.63;39.85;;;2.90;99.90;;;;;;6131516;23;20197;-88
2022/01/11 16:45:49;;;;;;;93.07;38.92;;;2.90;99.90;;;;;;6131154;23;20248;-87
2022/01/11 16:55:17;;;;;;;88.55;41.30;;;2.70;99.90;;;;;;6106798;23;20226;-88
2022/01/11 17:02:06;;;;;;;88.80;38.38;;;2.70;99.90;;;;;;5973784;24;20272;-87
2022/01/11 17:18:23;;;;;;;;;;;;;;;;;;;;;
2022/01/11 17:21:28;;;;;;;88.97;38.00;;;2.60;99.90;;;;;;6100765;23;20213;-87
2022/01/11 17:25:23;;;;;;;87.20;37.67;;;2.60;99.90;;;;;;6090418;23;20186;-87
2022/01/11 17:32:02;;;;;;;88.30;34.83;;;2.60;99.90;;;;;;6088474;23;20163;-87
2022/01/11 17:35:05;;;;;;;85.20;31.95;;;2.60;99.90;;;;;;6054601;23;20176;-87
2022/01/11 17:37:49;;;;;;;;;;;;;;;;;;;;;
2022/01/11 22:34:15;;;;;;;103.50;56.05;;;0.60;99.90;;;;;;5909660;24;20238;-88
2022/01/11 22:38:03;;;;;;;95.00;52.15;;;0.70;99.90;;;;;;5828935;24;20189;-88
2022/01/11 22:41:20;;;;;;;97.78;49.40;;;0.80;99.90;;;;;;5918478;24;20178;-89
2022/01/11 22:44:33;;;;;;;94.40;47.60;;;0.80;99.90;;;;;;5831535;24;20180;-89
2022/01/11 22:47:54;;;;;;;;;;;;;;;;;;;;;
2022/01/11 22:50:57;;;;;;;91.43;42.97;;;0.70;99.90;;;;;;5928326;24;20177;-88
